Time;durP1;ratioP1;P1;durP2;ratioP2;P2;SDS_P1;SDS_P2;PMS_P1;PMS_P2;Temp;Humidity;BMP_temperature;BMP_pressure;BME280_temperature;BME280_humidity;BME280_pressure;Samples;Min_cycle;Max_cycle;Signal;HPM_P1;HPM_P2
2022/08/22 00:02:49;;;;;;;7.97;3.42;;;16.20;99.90;;;;;;5077806;28;20452;-72
2022/08/22 00:05:34;;;;;;;7.43;3.28;;;16.20;99.90;;;;;;5050121;28;20076;-72
2022/08/22 00:08:17;;;;;;;7.93;2.88;;;16.10;99.90;;;;;;5077795;28;20123;-72
2022/08/22 00:10:56;;;;;;;7.95;2.90;;;16.10;99.90;;;;;;5068816;28;20128;-72
2022/08/22 00:13:39;;;;;;;9.50;3.30;;;16.10;99.90;;;;;;5057724;28;20075;-72
2022/08/22 00:16:57;;;;;;;8.05;3.20;;;16.00;99.90;;;;;;5058205;28;20126;-72
2022/08/22 00:19:48;;;;;;;11.10;3.03;;;16.00;99.90;;;;;;4996122;28;20133;-72
2022/08/22 00:22:33;;;;;;;4.80;2.50;;;16.00;99.90;;;;;;5054544;28;20148;-72
2022/08/22 00:25:28;;;;;;;7.80;3.10;;;16.00;99.90;;;;;;5061193;28;20032;-73
2022/08/22 00:28:13;;;;;;;6.88;2.85;;;16.00;99.90;;;;;;5060734;28;20084;-72
2022/08/22 00:31:17;;;;;;;13.05;3.40;;;16.00;99.90;;;;;;5036328;28;20107;-72
2022/08/22 00:34:03;;;;;;;8.32;3.45;;;16.00;99.90;;;;;;5037358;28;20060;-72
2022/08/22 00:36:56;;;;;;;8.18;3.50;;;16.00;99.90;;;;;;5037340;28;20037;-72
2022/08/22 00:39:35;;;;;;;6.65;3.25;;;15.90;99.90;;;;;;5021865;28;20049;-72
2022/08/22 00:42:13;;;;;;;8.85;3.33;;;15.90;99.90;;;;;;5037421;28;20049;-72
2022/08/22 00:44:58;;;;;;;7.85;3.42;;;15.90;99.90;;;;;;5053211;28;20053;-72
2022/08/22 00:47:38;;;;;;;8.55;3.60;;;15.90;99.90;;;;;;5057034;28;20476;-72
2022/08/22 00:50:25;;;;;;;8.85;3.20;;;15.90;99.90;;;;;;5057368;28;20041;-72
2022/08/22 00:53:26;;;;;;;7.63;3.25;;;15.80;99.90;;;;;;5057013;28;20064;-72
2022/08/22 00:56:12;;;;;;;9.15;3.45;;;15.90;99.90;;;;;;5038855;28;20045;-72
2022/08/22 00:58:53;;;;;;;10.85;3.75;;;15.80;99.90;;;;;;5075593;28;20055;-72
2022/08/22 01:01:28;;;;;;;7.20;3.05;;;15.80;99.90;;;;;;5076716;28;20346;-72
2022/08/22 01:04:32;;;;;;;7.63;3.13;;;15.80;99.90;;;;;;5077203;28;20051;-72
2022/08/22 01:07:23;;;;;;;7.10;3.10;;;15.80;99.90;;;;;;5071687;28;20060;-72
2022/08/22 01:10:09;;;;;;;9.60;3.40;;;15.90;99.90;;;;;;5053995;28;20049;-71
2022/08/22 01:12:49;;;;;;;8.63;3.13;;;15.90;99.90;;;;;;5057045;28;20052;-72
2022/08/22 01:15:24;;;;;;;9.18;3.58;;;15.90;99.90;;;;;;5056227;28;20128;-72
2022/08/22 01:18:19;;;;;;;8.50;3.45;;;15.80;99.90;;;;;;5056018;28;20131;-72
2022/08/22 01:21:08;;;;;;;6.45;3.13;;;15.80;99.90;;;;;;5076233;28;20410;-72
2022/08/22 01:23:45;;;;;;;11.43;3.58;;;15.80;99.90;;;;;;5076638;28;20392;-72
2022/08/22 01:26:49;;;;;;;7.32;3.20;;;15.80;99.90;;;;;;5075992;28;20037;-72
2022/08/22 01:29:33;;;;;;;9.10;3.90;;;15.80;99.90;;;;;;5076574;28;20060;-72
2022/08/22 01:32:17;;;;;;;8.27;3.53;;;15.80;99.90;;;;;;5076372;28;20123;-72
2022/08/22 01:34:50;;;;;;;9.55;4.40;;;15.80;99.90;;;;;;5066727;28;20135;-72
2022/08/22 01:37:35;;;;;;;7.35;3.38;;;15.80;99.90;;;;;;5075067;28;20185;-71
2022/08/22 01:40:25;;;;;;;8.02;3.85;;;15.80;99.90;;;;;;5036244;28;20053;-72
2022/08/22 01:43:28;;;;;;;7.85;3.38;;;15.80;99.90;;;;;;5036711;28;20068;-72
2022/08/22 01:46:26;;;;;;;8.65;3.22;;;15.80;99.90;;;;;;5035989;28;20107;-72
2022/08/22 01:49:07;;;;;;;8.25;3.90;;;15.80;99.90;;;;;;5035964;28;20049;-72
2022/08/22 01:51:39;;;;;;;10.25;3.65;;;15.80;99.90;;;;;;5035930;28;20077;-72
2022/08/22 01:54:12;;;;;;;8.25;3.75;;;15.80;99.90;;;;;;5053538;28;20465;-72
2022/08/22 01:56:42;;;;;;;8.00;3.47;;;15.80;99.90;;;;;;5056119;28;20480;-72
2022/08/22 01:59:19;;;;;;;10.50;3.58;;;15.70;99.90;;;;;;5055638;28;20045;-72
2022/08/22 02:02:03;;;;;;;8.00;3.35;;;15.70;99.90;;;;;;5055276;28;20120;-72
2022/08/22 02:04:54;;;;;;;8.30;3.85;;;15.70;99.90;;;;;;5072051;28;20048;-72
2022/08/22 02:07:37;;;;;;;8.88;3.72;;;15.70;99.90;;;;;;5055531;28;20037;-72
2022/08/22 02:10:09;;;;;;;;;;;15.60;99.90;;;;;;5056013;28;20056;-72
2022/08/22 02:12:40;;;;;;;8.00;3.53;;;15.60;99.90;;;;;;5055950;28;20302;-71
2022/08/22 02:15:28;;;;;;;5.88;3.30;;;15.60;99.90;;;;;;5055293;28;20063;-72
2022/08/22 02:18:12;;;;;;;8.40;3.67;;;15.60;99.90;;;;;;5067691;28;20100;-71
2022/08/22 02:20:47;;;;;;;6.07;3.28;;;15.60;99.90;;;;;;5075115;28;20044;-72
2022/08/22 02:23:37;;;;;;;9.38;3.75;;;15.60;99.90;;;;;;5075131;28;20095;-72
2022/08/22 02:26:06;;;;;;;8.40;3.67;;;15.60;99.90;;;;;;5075480;28;20048;-72
2022/08/22 02:28:51;;;;;;;7.25;3.88;;;15.50;99.90;;;;;;5075601;28;20098;-72
2022/08/22 02:31:24;;;;;;;8.15;3.53;;;15.50;99.90;;;;;;5074713;28;20115;-72
2022/08/22 02:33:55;;;;;;;11.17;3.60;;;15.50;99.90;;;;;;5075471;28;20114;-72
2022/08/22 02:39:17;;;;;;;8.27;3.67;;;15.40;99.90;;;;;;5033745;28;20061;-72
2022/08/22 02:41:58;;;;;;;8.07;3.40;;;15.40;99.90;;;;;;5055025;28;20056;-72
2022/08/22 02:44:32;;;;;;;10.30;3.67;;;15.40;99.90;;;;;;5054985;28;20068;-72
2022/08/22 02:47:09;;;;;;;7.75;3.30;;;15.30;99.90;;;;;;5054170;28;20071;-72
2022/08/22 02:50:16;;;;;;;9.90;4.05;;;15.30;99.90;;;;;;5055090;28;20042;-72
2022/08/22 02:52:44;;;;;;;11.35;3.67;;;15.30;99.90;;;;;;5008493;28;20057;-72
2022/08/22 02:55:27;;;;;;;6.60;3.53;;;15.20;99.90;;;;;;5054410;28;20048;-72
2022/08/22 02:58:10;;;;;;;10.52;3.38;;;15.20;99.90;;;;;;5037130;28;20088;-72
2022/08/22 03:01:23;;;;;;;6.82;3.40;;;15.20;99.90;;;;;;5055097;28;20052;-72
2022/08/22 03:03:50;;;;;;;9.73;3.60;;;15.20;99.90;;;;;;5054698;28;20127;-71
2022/08/22 03:07:10;;;;;;;7.55;3.25;;;15.10;99.90;;;;;;5054650;28;20056;-72
2022/08/22 03:10:09;;;;;;;7.93;3.45;;;15.10;99.90;;;;;;5003603;28;20046;-72
2022/08/22 03:13:06;;;;;;;7.20;3.53;;;15.10;99.90;;;;;;5034617;28;20061;-72
2022/08/22 03:15:52;;;;;;;8.35;3.97;;;15.00;99.90;;;;;;5035011;28;20432;-72
2022/08/22 03:18:41;;;;;;;9.80;3.95;;;15.10;99.90;;;;;;5034359;28;20061;-72
2022/08/22 03:21:10;;;;;;;12.60;4.00;;;15.00;99.90;;;;;;5035058;28;20364;-72
2022/08/22 03:23:50;;;;;;;7.95;4.07;;;14.90;99.90;;;;;;5038888;28;20041;-72
2022/08/22 03:26:25;;;;;;;9.65;3.33;;;14.90;99.90;;;;;;5054233;28;20088;-71
2022/08/22 03:29:22;;;;;;;9.30;4.07;;;15.00;99.90;;;;;;5054724;28;20392;-71
2022/08/22 03:32:06;;;;;;;8.23;3.88;;;14.90;99.90;;;;;;5054594;28;20041;-72
2022/08/22 03:34:32;;;;;;;8.55;3.28;;;14.90;99.90;;;;;;5054596;28;20460;-72
2022/08/22 03:37:03;;;;;;;9.63;3.67;;;14.90;99.90;;;;;;5054068;28;20068;-72
2022/08/22 03:40:13;;;;;;;6.80;3.75;;;14.80;99.90;;;;;;5043779;28;20057;-72
2022/08/22 03:43:16;;;;;;;7.35;3.42;;;14.90;99.90;;;;;;5002116;28;20342;-72
2022/08/22 03:45:59;;;;;;;10.10;4.03;;;14.80;99.90;;;;;;5034579;28;20072;-72
2022/08/22 03:48:25;;;;;;;;;;;14.80;99.90;;;;;;5034859;28;20080;-72
2022/08/22 03:51:17;;;;;;;9.65;3.92;;;14.90;99.90;;;;;;5017270;28;19984;-71
2022/08/22 03:54:18;;;;;;;10.48;4.63;;;14.80;99.90;;;;;;5034277;28;20080;-71
2022/08/22 03:57:08;;;;;;;10.65;4.85;;;14.80;99.90;;;;;;5034957;28;20041;-72
2022/08/22 03:59:50;;;;;;;9.13;4.03;;;14.80;99.90;;;;;;5038136;28;20045;-72
2022/08/22 04:02:50;;;;;;;10.55;3.92;;;14.90;99.90;;;;;;5037985;28;20041;-72
2022/08/22 04:05:44;;;;;;;7.55;3.47;;;14.90;99.90;;;;;;5005782;28;20068;-71
2022/08/22 04:08:30;;;;;;;10.50;4.03;;;14.90;99.90;;;;;;5037967;28;20115;-71
2022/08/22 04:11:15;;;;;;;10.88;4.75;;;14.90;99.90;;;;;;5017952;28;20358;-71
2022/08/22 04:14:26;;;;;;;9.82;4.57;;;14.90;99.90;;;;;;5018450;28;20046;-72
2022/08/22 04:17:13;;;;;;;10.13;4.20;;;14.90;99.90;;;;;;5013433;28;20068;-72
2022/08/22 04:20:10;;;;;;;8.75;4.30;;;14.90;99.90;;;;;;5017624;28;20147;-71
2022/08/22 04:22:57;;;;;;;9.60;4.20;;;14.90;99.90;;;;;;5017863;28;20042;-72
2022/08/22 04:25:34;;;;;;;9.75;4.75;;;15.00;99.90;;;;;;5036759;28;20357;-71
2022/08/22 04:28:19;;;;;;;12.75;4.50;;;15.00;99.90;;;;;;5037559;28;20073;-72
2022/08/22 04:30:53;;;;;;;8.50;3.85;;;15.10;99.90;;;;;;5037618;28;20045;-72
2022/08/22 04:33:28;;;;;;;9.73;3.88;;;15.10;99.90;;;;;;5036769;28;20049;-72
2022/08/22 04:36:14;;;;;;;8.05;3.78;;;15.10;99.90;;;;;;5037719;28;20052;-71
2022/08/22 04:38:43;;;;;;;8.50;3.92;;;15.10;99.90;;;;;;5039327;28;20124;-71
2022/08/22 04:41:18;;;;;;;10.32;4.55;;;15.10;99.90;;;;;;5039397;28;20080;-71
2022/08/22 04:43:50;;;;;;;10.05;4.05;;;15.20;99.90;;;;;;5057091;28;20041;-72
2022/08/22 04:46:44;;;;;;;10.05;4.10;;;15.10;99.90;;;;;;5056668;28;20040;-71
2022/08/22 04:49:25;;;;;;;7.82;4.10;;;15.20;99.90;;;;;;5057277;28;20357;-72
2022/08/22 04:52:20;;;;;;;10.50;3.70;;;15.20;99.90;;;;;;5057267;28;20041;-72
2022/08/22 04:55:23;;;;;;;8.63;3.97;;;15.20;99.90;;;;;;5056466;28;20045;-71
2022/08/22 04:57:58;;;;;;;8.55;3.83;;;15.20;99.90;;;;;;5039209;28;20049;-71
2022/08/22 05:00:24;;;;;;;7.55;4.00;;;15.10;99.90;;;;;;5022693;28;20041;-71
2022/08/22 05:02:55;;;;;;;8.60;4.18;;;15.20;99.90;;;;;;5056618;28;20186;-71
2022/08/22 05:05:30;;;;;;;11.40;4.63;;;15.20;99.90;;;;;;5056778;28;20037;-71
2022/08/22 05:07:59;;;;;;;9.70;4.25;;;15.20;99.90;;;;;;5051019;28;20046;-72
2022/08/22 05:10:32;;;;;;;9.00;4.38;;;15.30;99.90;;;;;;5036221;28;20045;-71
2022/08/22 05:13:04;;;;;;;9.90;3.90;;;15.20;99.90;;;;;;5036818;28;20080;-72
2022/08/22 05:15:35;;;;;;;8.90;4.43;;;15.30;99.90;;;;;;5036949;28;20364;-71
2022/08/22 05:18:19;;;;;;;12.10;5.28;;;15.40;99.90;;;;;;5036566;28;20041;-71
2022/08/22 05:20:48;;;;;;;8.60;4.57;;;15.40;99.90;;;;;;5036502;28;20045;-71
2022/08/22 05:23:23;;;;;;;12.95;4.35;;;15.40;99.90;;;;;;5040943;28;20376;-72
2022/08/22 05:25:54;;;;;;;10.60;4.68;;;15.40;99.90;;;;;;5056416;28;20053;-71
2022/08/22 05:28:48;;;;;;;8.57;4.43;;;15.50;99.90;;;;;;5056591;28;20067;-71
2022/08/22 05:31:29;;;;;;;8.82;3.58;;;15.60;99.90;;;;;;5052932;28;20057;-72
2022/08/22 05:34:03;;;;;;;11.48;5.32;;;15.70;99.90;;;;;;5056038;28;20045;-72
2022/08/22 05:36:40;;;;;;;9.80;4.28;;;15.80;99.90;;;;;;5056424;28;20134;-71
2022/08/22 05:39:13;;;;;;;12.30;5.35;;;15.80;99.90;;;;;;5041050;28;20053;-72
2022/08/22 05:41:40;;;;;;;11.35;4.53;;;15.90;99.90;;;;;;5036097;28;20085;-71
2022/08/22 05:44:25;;;;;;;10.00;4.72;;;16.10;99.90;;;;;;5018535;28;20037;-71
2022/08/22 05:47:19;;;;;;;11.13;4.30;;;16.20;99.90;;;;;;5035793;28;20045;-72
2022/08/22 05:49:51;;;;;;;;;;;16.20;99.90;;;;;;5036364;28;20049;-72
2022/08/22 05:52:36;;;;;;;9.75;4.38;;;16.40;99.90;;;;;;5035663;28;20341;-72
2022/08/22 05:55:29;;;;;;;11.55;4.70;;;16.40;99.90;;;;;;5035859;28;20048;-72
2022/08/22 05:58:30;;;;;;;9.50;4.50;;;16.40;99.90;;;;;;5035722;28;20049;-72
2022/08/22 06:01:06;;;;;;;9.25;4.65;;;16.40;99.90;;;;;;5024444;28;20128;-72
2022/08/22 06:03:56;;;;;;;9.73;4.30;;;16.40;99.90;;;;;;5036297;28;20041;-72
2022/08/22 06:06:25;;;;;;;5.88;3.67;;;16.50;99.90;;;;;;5035333;28;20037;-72
2022/08/22 06:09:06;;;;;;;9.25;4.38;;;16.60;99.90;;;;;;5047300;28;20056;-72
2022/08/22 06:11:35;;;;;;;10.55;4.40;;;16.70;99.90;;;;;;5055385;28;20045;-72
2022/08/22 06:14:11;;;;;;;12.00;5.10;;;16.80;99.90;;;;;;5055764;28;20045;-71
2022/08/22 06:16:55;;;;;;;10.32;4.13;;;16.90;99.90;;;;;;5055367;28;20137;-72
2022/08/22 06:19:22;;;;;;;9.23;3.90;;;17.00;99.90;;;;;;5055582;28;20357;-71
2022/08/22 06:21:50;;;;;;;12.75;5.25;;;17.20;99.90;;;;;;5055018;28;20041;-72
2022/08/22 06:24:22;;;;;;;9.93;3.90;;;17.30;99.90;;;;;;5049703;28;20449;-72
2022/08/22 06:26:51;;;;;;;14.68;5.40;;;17.40;99.90;;;;;;5035556;28;20045;-72
2022/08/22 06:29:36;;;;;;;14.20;4.35;;;17.50;99.90;;;;;;5035574;28;20084;-71
2022/08/22 06:32:11;;;;;;;10.25;3.95;;;17.60;99.90;;;;;;5035306;28;20038;-72
2022/08/22 06:34:41;;;;;;;11.60;4.32;;;17.70;99.90;;;;;;5035045;28;20449;-72
2022/08/22 06:37:11;;;;;;;9.73;4.97;;;17.70;99.90;;;;;;5019549;28;20046;-72
2022/08/22 06:39:43;;;;;;;14.05;5.07;;;17.80;99.90;;;;;;5055211;28;20037;-72
2022/08/22 06:42:12;;;;;;;12.20;4.75;;;17.90;99.90;;;;;;5055161;28;20441;-72
2022/08/22 06:45:30;;;;;;;11.48;4.18;;;18.00;99.90;;;;;;5054968;28;20529;-72
2022/08/22 06:48:05;;;;;;;10.88;4.40;;;18.10;99.90;;;;;;5004843;28;20140;-72
2022/08/22 06:50:37;;;;;;;10.88;4.28;;;18.10;99.90;;;;;;5055067;28;20048;-72
2022/08/22 06:53:33;;;;;;;13.10;5.82;;;18.20;99.90;;;;;;5054336;28;20041;-72
2022/08/22 06:56:02;;;;;;;13.02;5.45;;;18.30;99.90;;;;;;5054777;28;20041;-72
2022/08/22 06:58:41;;;;;;;9.25;4.43;;;18.40;99.90;;;;;;5055056;28;20055;-72
2022/08/22 07:01:11;;;;;;;11.10;4.32;;;18.40;99.90;;;;;;5054694;28;20040;-72
2022/08/22 07:03:41;;;;;;;13.32;4.25;;;18.30;99.90;;;;;;5038160;28;20135;-72
2022/08/22 07:06:13;;;;;;;13.00;4.47;;;18.50;99.90;;;;;;5034358;28;20045;-72
2022/08/22 07:08:39;;;;;;;10.55;4.00;;;18.60;99.90;;;;;;5018132;28;20042;-72
2022/08/22 07:11:29;;;;;;;8.82;3.42;;;18.50;99.90;;;;;;5034709;28;20119;-72
2022/08/22 07:14:10;;;;;;;9.65;3.17;;;18.60;99.90;;;;;;5034712;28;20158;-72
2022/08/22 07:16:52;;;;;;;13.52;4.20;;;18.70;99.90;;;;;;5034981;28;20353;-72
2022/08/22 07:19:39;;;;;;;11.88;4.10;;;18.80;99.90;;;;;;5034652;28;20104;-72
2022/08/22 07:22:24;;;;;;;12.27;4.05;;;18.90;99.90;;;;;;5016881;28;20046;-72
2022/08/22 07:24:54;;;;;;;9.77;3.45;;;18.90;99.90;;;;;;5034484;28;20041;-72
2022/08/22 07:27:59;;;;;;;12.38;4.97;;;18.90;99.90;;;;;;5034383;28;20098;-72
2022/08/22 07:30:53;;;;;;;10.55;4.35;;;19.00;99.90;;;;;;5034673;28;20434;-72
2022/08/22 07:33:43;;;;;;;12.48;4.65;;;19.10;99.90;;;;;;5053623;28;20088;-72
2022/08/22 07:36:44;;;;;;;11.52;5.13;;;19.20;99.90;;;;;;5058675;28;20349;-72
2022/08/22 07:39:38;;;;;;;10.55;3.97;;;19.20;99.90;;;;;;5052668;28;20145;-72
2022/08/22 07:42:16;;;;;;;15.88;6.43;;;19.30;99.90;;;;;;5007627;28;20435;-72
2022/08/22 07:45:09;;;;;;;15.93;5.72;;;19.40;99.90;;;;;;5058292;28;20045;-72
2022/08/22 07:47:44;;;;;;;17.38;5.38;;;19.50;99.90;;;;;;5057577;28;20820;-72
2022/08/22 07:50:15;;;;;;;14.65;6.55;;;19.50;99.90;;;;;;5057881;28;20053;-72
2022/08/22 07:52:44;;;;;;;13.88;5.38;;;19.60;99.90;;;;;;5057945;28;20048;-72
2022/08/22 07:55:22;;;;;;;11.23;4.15;;;19.60;99.90;;;;;;5058313;28;20049;-72
2022/08/22 07:57:55;;;;;;;15.75;5.13;;;19.70;99.90;;;;;;5058645;28;20110;-72
2022/08/22 08:00:22;;;;;;;11.98;3.85;;;19.80;99.90;;;;;;5058311;28;20071;-72
2022/08/22 08:02:55;;;;;;;10.10;3.70;;;19.90;99.90;;;;;;5041427;28;20053;-72
2022/08/22 08:05:23;;;;;;;12.88;4.05;;;20.00;99.90;;;;;;5038011;28;20056;-72
2022/08/22 08:07:52;;;;;;;12.65;5.07;;;20.00;99.90;;;;;;5038122;28;20361;-72
2022/08/22 08:10:24;;;;;;;12.10;4.18;;;20.20;99.90;;;;;;5037889;28;20353;-72
2022/08/22 08:12:53;;;;;;;12.65;4.60;;;20.40;99.90;;;;;;5020739;28;20141;-72
2022/08/22 08:15:21;;;;;;;10.63;3.80;;;21.00;99.90;;;;;;5037773;28;20046;-72
2022/08/22 08:17:56;;;;;;;19.42;4.30;;;21.30;99.90;;;;;;5048885;28;20449;-72
2022/08/22 08:20:25;;;;;;;16.35;4.18;;;21.40;99.90;;;;;;5057788;28;20103;-72
2022/08/22 08:22:53;;;;;;;10.00;3.40;;;21.40;99.90;;;;;;5057317;28;20055;-72
2022/08/22 08:25:23;;;;;;;10.07;2.78;;;21.50;99.90;;;;;;5057825;28;20045;-72
2022/08/22 08:30:41;;;;;;;11.88;2.80;;;21.70;99.90;;;;;;5057015;28;20049;-72
2022/08/22 08:33:13;;;;;;;11.98;3.60;;;21.80;99.90;;;;;;5057685;28;20068;-72
2022/08/22 08:35:42;;;;;;;8.77;2.97;;;21.90;99.90;;;;;;5056985;28;20445;-72
2022/08/22 08:38:19;;;;;;;10.40;3.08;;;22.00;99.90;;;;;;5022995;28;20111;-72
2022/08/22 08:41:19;;;;;;;10.05;3.28;;;22.00;99.90;;;;;;5057927;28;20361;-72
2022/08/22 08:43:51;;;;;;;15.20;2.85;;;22.00;99.90;;;;;;5021206;28;20085;-72
2022/08/22 08:46:51;;;;;;;12.20;3.33;;;21.90;99.90;;;;;;5036999;28;20045;-72
2022/08/22 08:49:28;;;;;;;10.07;3.33;;;22.00;99.90;;;;;;5037521;28;20357;-72
2022/08/22 08:52:28;;;;;;;10.73;2.88;;;22.00;99.90;;;;;;5037318;28;20049;-72
2022/08/22 08:55:27;;;;;;;9.13;2.53;;;22.00;99.90;;;;;;5037161;28;20056;-72
2022/08/22 08:57:59;;;;;;;10.85;2.67;;;22.20;99.90;;;;;;5036781;28;20079;-72
2022/08/22 09:00:54;;;;;;;9.38;3.22;;;22.60;99.90;;;;;;5003124;28;20045;-72
2022/08/22 09:03:44;;;;;;;9.10;2.47;;;23.20;99.90;;;;;;5037236;28;20048;-72
2022/08/22 09:06:44;;;;;;;8.93;3.13;;;23.50;99.90;;;;;;5036853;28;20049;-72
2022/08/22 09:09:09;;;;;;;11.52;2.78;;;23.40;99.90;;;;;;5037290;28;20465;-72
2022/08/22 09:12:05;;;;;;;10.98;2.63;;;23.60;99.90;;;;;;5036309;28;20073;-72
2022/08/22 09:14:45;;;;;;;10.98;2.63;;;23.90;99.90;;;;;;5056550;28;20083;-72
2022/08/22 09:17:50;;;;;;;10.48;2.63;;;24.10;99.90;;;;;;5056420;28;20488;-72
2022/08/22 09:20:45;;;;;;;10.48;2.53;;;24.00;99.90;;;;;;5056649;28;20072;-72
2022/08/22 09:23:34;;;;;;;10.15;2.60;;;24.00;99.90;;;;;;5056456;28;20049;-72
2022/08/22 09:26:15;;;;;;;8.07;2.10;;;23.90;99.90;;;;;;5056390;28;20076;-72
2022/08/22 09:29:06;;;;;;;10.35;2.72;;;24.00;99.90;;;;;;5055745;28;20048;-72
2022/08/22 09:31:54;;;;;;;8.30;2.10;;;24.20;99.90;;;;;;5056329;28;20037;-72
2022/08/22 09:34:38;;;;;;;7.05;2.05;;;24.40;99.90;;;;;;5056540;28;20431;-73
2022/08/22 09:37:13;;;;;;;8.02;2.45;;;24.50;99.90;;;;;;5055703;28;20057;-72
2022/08/22 09:40:12;;;;;;;8.07;2.38;;;24.10;99.90;;;;;;5038596;28;20048;-72
2022/08/22 09:43:00;;;;;;;10.82;2.25;;;23.80;99.90;;;;;;4979661;28;20140;-72
2022/08/22 09:45:45;;;;;;;7.65;2.45;;;23.70;99.90;;;;;;5016381;28;20135;-72
2022/08/22 09:48:26;;;;;;;9.98;2.60;;;23.50;99.90;;;;;;5016164;28;20108;-72
2022/08/22 09:51:38;;;;;;;8.48;2.55;;;23.40;99.90;;;;;;5015722;28;20478;-72
2022/08/22 09:54:13;;;;;;;7.70;2.55;;;23.30;99.90;;;;;;4972350;28;20478;-72
2022/08/22 09:57:17;;;;;;;7.25;2.20;;;23.50;99.90;;;;;;5022245;28;20153;-72
2022/08/22 09:59:52;;;;;;;9.70;2.78;;;23.70;99.90;;;;;;5035183;28;20061;-72
2022/08/22 10:02:17;;;;;;;11.07;2.75;;;23.90;99.90;;;;;;5035847;28;20045;-72
2022/08/22 10:05:11;;;;;;;9.30;1.95;;;23.90;99.90;;;;;;5035955;28;20048;-72
2022/08/22 10:07:36;;;;;;;7.75;2.20;;;24.00;99.90;;;;;;5035597;28;20071;-72
2022/08/22 10:10:21;;;;;;;9.35;2.20;;;23.70;99.90;;;;;;5035567;28;20384;-72
2022/08/22 10:13:17;;;;;;;6.63;2.08;;;23.60;99.90;;;;;;5051340;28;20449;-72
2022/08/22 10:16:24;;;;;;;12.93;3.20;;;23.50;99.90;;;;;;5023803;28;20116;-72
2022/08/22 10:19:22;;;;;;;9.07;2.80;;;23.40;99.90;;;;;;5035753;28;20405;-72
2022/08/22 10:22:03;;;;;;;12.30;2.70;;;23.30;99.90;;;;;;5001580;28;20441;-72
2022/08/22 10:24:51;;;;;;;10.63;2.58;;;23.20;99.90;;;;;;5035346;28;20059;-72
2022/08/22 10:27:51;;;;;;;9.10;2.65;;;23.30;99.90;;;;;;5035442;28;20042;-72
2022/08/22 10:30:34;;;;;;;19.70;3.67;;;23.20;99.90;;;;;;4982041;28;20053;-72
2022/08/22 10:33:21;;;;;;;10.48;2.58;;;23.20;99.90;;;;;;5035297;28;20045;-72
2022/08/22 10:35:50;;;;;;;10.77;2.55;;;23.30;99.90;;;;;;5035224;28;20079;-72
2022/08/22 10:38:24;;;;;;;11.82;3.50;;;23.30;99.90;;;;;;5035634;28;20072;-72
2022/08/22 10:41:26;;;;;;;8.23;2.65;;;23.20;99.90;;;;;;5035075;28;20073;-72
2022/08/22 10:44:13;;;;;;;16.55;3.35;;;23.30;99.90;;;;;;5035114;28;20041;-72
2022/08/22 10:46:54;;;;;;;9.73;2.50;;;23.40;99.90;;;;;;5034317;28;20029;-72
2022/08/22 10:49:52;;;;;;;11.40;2.83;;;23.60;99.90;;;;;;5035216;28;20059;-72
2022/08/22 10:52:26;;;;;;;8.57;2.63;;;23.60;99.90;;;;;;5029044;28;20053;-73
2022/08/22 10:54:59;;;;;;;9.45;2.90;;;23.60;99.90;;;;;;5034919;28;20045;-72
2022/08/22 10:57:50;;;;;;;6.88;2.50;;;23.70;99.90;;;;;;5034842;28;20453;-72
2022/08/22 11:00:29;;;;;;;10.75;3.00;;;23.70;99.90;;;;;;5034723;28;20041;-72
2022/08/22 11:03:10;;;;;;;11.80;2.80;;;23.80;99.90;;;;;;5034547;28;20123;-72
2022/08/22 11:05:38;;;;;;;11.88;2.80;;;23.80;99.90;;;;;;5033812;28;20046;-72
2022/08/22 11:08:24;;;;;;;12.98;2.75;;;23.80;99.90;;;;;;4999961;28;20457;-72
2022/08/22 11:10:59;;;;;;;12.32;3.15;;;23.70;99.90;;;;;;5034795;28;20049;-72
2022/08/22 11:13:28;;;;;;;9.32;2.65;;;23.70;98.70;;;;;;5035081;28;20056;-72
2022/08/22 11:16:25;;;;;;;8.32;2.30;;;23.60;99.60;;;;;;5034986;28;20045;-72
2022/08/22 11:18:56;;;;;;;7.75;2.10;;;23.60;99.50;;;;;;5034548;28;20045;-72
2022/08/22 11:21:44;;;;;;;6.63;2.00;;;23.80;99.90;;;;;;5034855;28;20079;-72
2022/08/22 11:24:24;;;;;;;10.85;2.95;;;23.90;99.90;;;;;;5034537;28;20124;-72
2022/08/22 11:27:13;;;;;;;10.25;2.78;;;24.00;99.60;;;;;;5034970;28;20079;-72
2022/08/22 11:30:11;;;;;;;10.55;2.83;;;24.10;99.90;;;;;;4999993;28;20084;-72
2022/08/22 11:32:43;;;;;;;9.13;2.70;;;24.40;99.60;;;;;;5014163;28;20060;-72
2022/08/22 11:35:30;;;;;;;11.90;2.57;;;24.40;99.10;;;;;;5014709;28;20081;-72
2022/08/22 11:38:38;;;;;;;11.27;2.83;;;24.50;98.60;;;;;;5027360;28;20075;-71
2022/08/22 11:41:24;;;;;;;9.52;2.60;;;24.50;98.00;;;;;;5012212;28;20081;-71
2022/08/22 11:44:14;;;;;;;10.90;2.50;;;24.50;98.20;;;;;;5016771;28;20103;-71
2022/08/22 11:46:48;;;;;;;13.00;2.72;;;24.40;98.20;;;;;;5051407;28;20056;-72
2022/08/22 11:49:39;;;;;;;9.65;2.00;;;24.50;97.90;;;;;;5054684;28;20065;-72
2022/08/22 11:52:28;;;;;;;9.20;2.33;;;24.80;97.80;;;;;;5055099;28;20049;-71
2022/08/22 11:55:21;;;;;;;9.73;2.42;;;24.90;97.40;;;;;;5054583;28;20045;-71
2022/08/22 11:57:53;;;;;;;;;;;24.70;97.60;;;;;;5054891;28;20067;-72
2022/08/22 12:00:25;;;;;;;11.50;2.40;;;24.70;96.80;;;;;;5053486;28;20368;-71
2022/08/22 12:02:57;;;;;;;6.88;1.80;;;24.60;97.10;;;;;;5054389;28;20049;-71
2022/08/22 12:05:32;;;;;;;8.40;2.00;;;24.80;96.60;;;;;;5054320;28;20049;-71
2022/08/22 12:08:22;;;;;;;7.78;2.55;;;24.60;96.50;;;;;;5054567;28;20091;-71
2022/08/22 12:10:59;;;;;;;6.45;1.83;;;24.60;96.70;;;;;;5054560;28;20048;-71
2022/08/22 12:13:40;;;;;;;9.00;2.45;;;24.70;97.10;;;;;;5054116;28;20045;-71
2022/08/22 12:16:15;;;;;;;8.30;1.95;;;24.70;96.60;;;;;;5053812;28;20453;-71
2022/08/22 12:19:04;;;;;;;5.55;1.67;;;24.70;95.50;;;;;;5055984;28;20075;-71
2022/08/22 12:21:36;;;;;;;6.18;1.63;;;24.60;96.10;;;;;;5057782;28;20404;-72
2022/08/22 12:24:14;;;;;;;7.18;2.47;;;24.60;96.30;;;;;;5057524;28;20041;-71
2022/08/22 12:27:12;;;;;;;7.15;2.03;;;24.60;96.00;;;;;;5057892;28;20048;-71
2022/08/22 12:30:08;;;;;;;4.65;1.60;;;24.70;95.90;;;;;;5057521;28;20056;-71
2022/08/22 12:32:57;;;;;;;8.90;1.98;;;24.70;95.30;;;;;;5057209;28;20461;-71
2022/08/22 12:35:51;;;;;;;5.50;1.90;;;24.80;95.60;;;;;;5057145;28;20052;-72
2022/08/22 12:38:44;;;;;;;9.93;2.55;;;25.00;95.60;;;;;;5057639;28;20131;-72
2022/08/22 12:41:30;;;;;;;11.90;2.47;;;25.00;95.00;;;;;;5057260;28;20061;-72
2022/08/22 12:43:58;;;;;;;6.82;2.25;;;24.90;95.40;;;;;;5057055;28;20123;-72
2022/08/22 12:46:51;;;;;;;11.15;2.10;;;25.10;95.60;;;;;;5056746;28;20067;-72
2022/08/22 12:49:28;;;;;;;4.82;1.77;;;25.20;95.50;;;;;;5057302;28;20436;-72
2022/08/22 12:52:23;;;;;;;10.00;2.08;;;25.30;95.90;;;;;;5056882;28;20059;-72
2022/08/22 12:55:13;;;;;;;5.95;1.83;;;25.40;96.90;;;;;;5057379;28;20048;-72
2022/08/22 12:58:00;;;;;;;11.02;2.10;;;25.50;95.60;;;;;;5056987;28;20049;-72
2022/08/22 13:00:34;;;;;;;6.88;1.95;;;25.50;95.90;;;;;;5056546;28;20077;-72
2022/08/22 13:03:05;;;;;;;7.07;1.92;;;25.50;95.70;;;;;;5057104;28;20091;-72
2022/08/22 13:05:34;;;;;;;10.33;2.47;;;25.60;96.60;;;;;;5039477;28;20060;-72
2022/08/22 13:08:03;;;;;;;9.00;2.58;;;25.70;96.00;;;;;;5056910;28;20041;-72
2022/08/22 13:10:49;;;;;;;6.38;2.03;;;25.60;95.50;;;;;;5039585;28;20052;-72
2022/08/22 13:13:28;;;;;;;6.60;1.90;;;25.60;96.20;;;;;;5056869;28;20044;-72
2022/08/22 13:16:17;;;;;;;8.55;2.25;;;25.60;95.60;;;;;;5056032;28;20045;-72
2022/08/22 13:18:54;;;;;;;8.52;2.30;;;25.60;96.00;;;;;;5056078;28;20076;-72
2022/08/22 13:21:31;;;;;;;8.35;2.22;;;25.60;95.40;;;;;;5056332;28;20132;-72
2022/08/22 13:24:03;;;;;;;6.40;2.03;;;25.60;96.20;;;;;;5056272;28;20041;-73
2022/08/22 13:26:30;;;;;;;7.57;2.28;;;25.50;95.70;;;;;;5056437;28;20037;-72
2022/08/22 13:29:03;;;;;;;5.18;2.47;;;25.40;96.00;;;;;;5056149;28;20048;-72
2022/08/22 13:31:40;;;;;;;12.80;2.90;;;25.40;96.30;;;;;;5055792;28;20037;-72
2022/08/22 13:34:32;;;;;;;6.80;2.45;;;25.40;95.90;;;;;;5056801;28;20429;-73
2022/08/22 13:37:02;;;;;;;8.32;2.67;;;25.40;95.70;;;;;;5055994;28;20045;-72
2022/08/22 13:39:32;;;;;;;9.60;2.45;;;25.30;95.60;;;;;;5056135;28;20107;-72
2022/08/22 13:42:00;;;;;;;6.60;2.17;;;25.30;95.80;;;;;;5038361;28;20116;-72
2022/08/22 13:44:29;;;;;;;11.02;3.00;;;25.20;96.20;;;;;;5056091;28;20055;-72
2022/08/22 13:47:13;;;;;;;10.05;3.00;;;25.20;96.00;;;;;;5055627;28;20059;-72
2022/08/22 13:49:43;;;;;;;8.50;2.70;;;25.10;96.00;;;;;;5055846;28;20052;-72
2022/08/22 13:52:21;;;;;;;12.77;2.30;;;24.90;96.00;;;;;;5055925;28;20041;-72
2022/08/22 13:54:55;;;;;;;11.40;2.45;;;25.10;96.70;;;;;;5055405;28;20366;-72
2022/08/22 13:57:38;;;;;;;10.25;2.40;;;25.20;96.50;;;;;;5038300;28;20103;-72
2022/08/22 14:00:18;;;;;;;5.88;2.30;;;25.30;96.10;;;;;;5055754;28;20041;-72
2022/08/22 14:03:14;;;;;;;7.25;2.17;;;25.50;95.30;;;;;;5055758;28;20049;-72
2022/08/22 14:05:41;;;;;;;8.60;2.47;;;25.50;96.10;;;;;;5055581;28;20053;-72
2022/08/22 14:08:07;;;;;;;10.05;2.38;;;25.70;95.40;;;;;;5055840;28;20041;-72